createdAt,value
2017-08-13T00:00:00.990Z,0.00
2017-08-13T00:01:00.966Z,0.00
2017-08-13T00:02:00.947Z,0.00
2017-08-13T00:03:00.929Z,0.00
2017-08-13T00:04:00.905Z,0.00
2017-08-13T00:05:00.882Z,0.00
2017-08-13T00:06:00.881Z,0.00
2017-08-13T00:07:00.842Z,0.00
2017-08-13T00:08:00.821Z,0.00
2017-08-13T00:09:00.799Z,0.00
2017-08-13T00:10:00.781Z,0.00
2017-08-13T00:11:00.756Z,0.00
2017-08-13T00:12:00.738Z,0.00
2017-08-13T00:13:00.718Z,0.00
2017-08-13T00:14:00.696Z,0.00
2017-08-13T00:15:00.676Z,0.00
2017-08-13T00:16:00.655Z,0.00
2017-08-13T00:17:00.636Z,0.00
2017-08-13T00:18:00.611Z,0.00
2017-08-13T00:19:00.589Z,0.00
2017-08-13T00:20:00.569Z,0.00
2017-08-13T00:21:00.551Z,0.00
2017-08-13T00:22:00.529Z,0.00
2017-08-13T00:23:00.508Z,0.00
2017-08-13T00:24:00.488Z,0.00
2017-08-13T00:25:00.464Z,0.00
2017-08-13T00:26:00.449Z,0.00
2017-08-13T00:27:00.423Z,0.00
2017-08-13T00:28:00.401Z,0.00
2017-08-13T00:29:00.383Z,0.00
2017-08-13T00:30:00.358Z,0.00
2017-08-13T00:31:00.343Z,0.00
2017-08-13T00:32:00.325Z,0.00
2017-08-13T00:33:00.300Z,0.00
2017-08-13T00:34:00.285Z,0.00
2017-08-13T00:35:00.254Z,0.00
2017-08-13T00:36:00.240Z,0.00
2017-08-13T00:37:00.213Z,0.00
2017-08-13T00:38:00.192Z,0.00
2017-08-13T00:39:00.175Z,0.00
2017-08-13T00:40:00.149Z,0.00
2017-08-13T00:41:00.132Z,0.00
2017-08-13T00:42:00.110Z,0.00
2017-08-13T00:43:00.090Z,0.00
2017-08-13T00:44:00.066Z,0.00
2017-08-13T00:45:00.048Z,0.00
2017-08-13T00:46:00.023Z,0.00
2017-08-13T00:47:00.007Z,0.00
2017-08-13T00:47:59.982Z,0.00
2017-08-13T00:48:59.965Z,0.00
2017-08-13T00:49:59.938Z,0.00
2017-08-13T00:50:59.920Z,0.00
2017-08-13T00:51:59.903Z,0.00
2017-08-13T00:52:59.878Z,0.00
2017-08-13T00:53:59.856Z,0.00
2017-08-13T00:54:59.837Z,0.00
2017-08-13T00:55:59.814Z,0.00
2017-08-13T00:56:59.794Z,0.00
2017-08-13T00:57:59.775Z,0.00
2017-08-13T00:58:59.754Z,0.00
2017-08-13T00:59:59.736Z,0.00
2017-08-13T01:00:59.710Z,0.00
2017-08-13T01:01:59.691Z,0.00
2017-08-13T01:02:59.670Z,0.00
2017-08-13T01:03:59.652Z,0.00
2017-08-13T01:04:59.626Z,0.00
2017-08-13T01:05:59.604Z,0.00
2017-08-13T01:06:59.585Z,0.00
2017-08-13T01:07:59.566Z,0.00
2017-08-13T01:08:59.546Z,0.00
2017-08-13T01:09:59.520Z,0.00
2017-08-13T01:10:59.500Z,0.00
2017-08-13T01:11:59.483Z,0.00
2017-08-13T01:12:59.461Z,0.00
2017-08-13T01:13:59.441Z,0.00
2017-08-13T01:14:59.416Z,0.00
2017-08-13T01:15:59.398Z,0.00
2017-08-13T01:16:59.375Z,0.00
2017-08-13T01:17:59.353Z,0.00
2017-08-13T01:18:59.333Z,0.00
2017-08-13T01:19:59.311Z,0.00
2017-08-13T01:20:59.295Z,0.00
2017-08-13T01:21:59.274Z,0.00
2017-08-13T01:22:59.250Z,0.00
2017-08-13T01:23:59.230Z,0.00
2017-08-13T01:24:59.207Z,0.00
2017-08-13T01:25:59.186Z,0.00
2017-08-13T01:26:59.165Z,0.00
2017-08-13T01:27:59.144Z,0.00
2017-08-13T01:28:59.123Z,0.00
2017-08-13T01:29:59.104Z,0.00
2017-08-13T01:30:59.081Z,0.00
2017-08-13T01:31:59.068Z,0.00
2017-08-13T01:32:59.039Z,0.00
2017-08-13T01:33:59.018Z,0.00
2017-08-13T01:34:58.997Z,0.00
2017-08-13T01:35:58.980Z,0.00
2017-08-13T01:36:58.956Z,0.00
2017-08-13T01:37:58.938Z,0.00
2017-08-13T01:38:58.916Z,0.00
2017-08-13T01:39:58.897Z,0.00
2017-08-13T01:40:58.872Z,0.00
2017-08-13T01:41:58.854Z,0.00
2017-08-13T01:42:58.833Z,0.00
2017-08-13T01:43:58.809Z,0.00
2017-08-13T01:44:58.788Z,0.00
2017-08-13T01:45:58.767Z,0.00
2017-08-13T01:46:58.746Z,0.00
2017-08-13T01:47:58.727Z,0.00
2017-08-13T01:48:58.706Z,0.00
2017-08-13T01:49:58.682Z,0.00
2017-08-13T01:50:58.663Z,0.00
2017-08-13T01:51:58.656Z,0.00
2017-08-13T01:52:58.620Z,0.00
2017-08-13T01:53:58.598Z,0.00
2017-08-13T01:54:58.579Z,0.00
2017-08-13T01:55:58.558Z,0.00
2017-08-13T01:56:58.536Z,0.00
2017-08-13T01:57:58.517Z,0.00
2017-08-13T01:58:58.497Z,0.00
2017-08-13T01:59:58.473Z,0.00
2017-08-13T02:00:58.456Z,0.00
2017-08-13T02:01:58.433Z,0.00
2017-08-13T02:02:58.414Z,0.00
2017-08-13T02:03:58.393Z,0.00
2017-08-13T02:04:58.372Z,0.00
2017-08-13T02:05:58.350Z,0.00
2017-08-13T02:06:58.328Z,0.00
2017-08-13T02:07:58.307Z,0.00
2017-08-13T02:08:58.287Z,0.00
2017-08-13T02:09:58.267Z,0.00
2017-08-13T02:10:58.246Z,0.00
2017-08-13T02:11:58.222Z,0.00
2017-08-13T02:12:58.205Z,0.00
2017-08-13T02:13:58.184Z,0.00
2017-08-13T02:14:58.159Z,0.00
2017-08-13T02:15:58.139Z,0.00
2017-08-13T02:16:58.117Z,0.00
2017-08-13T02:17:58.097Z,0.00
2017-08-13T02:18:58.074Z,0.00
2017-08-13T02:19:58.055Z,0.00
2017-08-13T02:20:58.034Z,0.00
2017-08-13T02:21:58.012Z,0.00
2017-08-13T02:22:57.995Z,0.00
2017-08-13T02:23:57.971Z,0.00
2017-08-13T02:24:57.950Z,0.00
2017-08-13T02:25:57.931Z,0.00
2017-08-13T02:26:57.912Z,0.00
2017-08-13T02:27:57.890Z,0.00
2017-08-13T02:28:57.870Z,0.00
2017-08-13T02:29:57.844Z,0.00
2017-08-13T02:30:57.823Z,0.00
2017-08-13T02:31:57.806Z,0.00
2017-08-13T02:32:57.783Z,0.00
2017-08-13T02:33:57.762Z,0.00
2017-08-13T02:34:57.740Z,0.00
2017-08-13T02:35:57.722Z,0.00
2017-08-13T02:36:57.701Z,0.00
2017-08-13T02:37:57.678Z,0.00
2017-08-13T02:38:57.658Z,0.00
2017-08-13T02:39:57.638Z,0.00
2017-08-13T02:40:57.615Z,0.00
2017-08-13T02:41:57.597Z,0.00
2017-08-13T02:42:57.573Z,0.00
2017-08-13T02:43:57.552Z,0.00
2017-08-13T02:44:57.537Z,0.00
2017-08-13T02:45:57.519Z,0.00
2017-08-13T02:46:57.493Z,0.00
2017-08-13T02:47:57.473Z,0.00
2017-08-13T02:48:57.451Z,0.00
2017-08-13T02:49:57.425Z,0.00
2017-08-13T02:50:57.409Z,0.00
2017-08-13T02:51:57.385Z,0.00
2017-08-13T02:52:57.367Z,0.00
2017-08-13T02:53:57.344Z,0.00
2017-08-13T02:54:57.324Z,0.00
2017-08-13T02:55:57.301Z,0.00
2017-08-13T02:56:57.286Z,0.00
2017-08-13T02:57:57.259Z,0.00
2017-08-13T02:58:57.241Z,0.00
2017-08-13T02:59:57.221Z,0.00
2017-08-13T03:00:57.201Z,0.00
2017-08-13T03:01:57.179Z,0.00
2017-08-13T03:02:57.157Z,0.00
2017-08-13T03:03:57.136Z,0.00
2017-08-13T03:04:57.116Z,0.00
2017-08-13T03:05:57.098Z,0.00
2017-08-13T03:06:57.075Z,0.00
2017-08-13T03:07:57.051Z,0.00
2017-08-13T03:08:57.030Z,0.00
2017-08-13T03:09:57.015Z,0.00
2017-08-13T03:10:56.987Z,0.00
2017-08-13T03:11:56.974Z,0.00
2017-08-13T03:12:56.945Z,0.00
2017-08-13T03:13:56.929Z,0.00
2017-08-13T03:14:56.906Z,0.00
2017-08-13T03:15:56.882Z,0.00
2017-08-13T03:16:56.861Z,0.00
2017-08-13T03:17:56.841Z,0.00
2017-08-13T03:18:56.822Z,0.00
2017-08-13T03:19:56.802Z,0.00
2017-08-13T03:20:56.778Z,0.00
2017-08-13T03:21:56.759Z,0.00
2017-08-13T03:22:56.737Z,0.00
2017-08-13T03:23:56.715Z,0.00
2017-08-13T03:24:56.699Z,0.00
2017-08-13T03:25:56.672Z,0.00
2017-08-13T03:26:56.654Z,0.00
2017-08-13T03:27:56.631Z,0.00
2017-08-13T03:28:56.614Z,0.00
2017-08-13T03:29:56.589Z,0.00
2017-08-13T03:30:56.572Z,0.00
2017-08-13T03:31:56.548Z,0.00
2017-08-13T03:32:56.531Z,0.00
2017-08-13T03:33:56.509Z,0.00
2017-08-13T03:34:56.484Z,0.00
2017-08-13T03:35:56.463Z,0.00
2017-08-13T03:36:56.446Z,0.00
2017-08-13T03:37:56.425Z,0.00
2017-08-13T03:38:56.400Z,0.00
2017-08-13T03:39:56.380Z,0.00
2017-08-13T03:40:56.361Z,0.00
2017-08-13T03:41:56.342Z,0.00
2017-08-13T03:42:56.321Z,0.00
2017-08-13T03:43:56.298Z,0.00
2017-08-13T03:44:56.277Z,0.00
2017-08-13T03:45:56.258Z,0.00
2017-08-13T03:46:56.234Z,0.00
2017-08-13T03:47:56.214Z,0.00
2017-08-13T03:48:56.191Z,0.00
2017-08-13T03:49:56.172Z,0.00
2017-08-13T03:50:56.149Z,0.00
2017-08-13T03:51:56.128Z,0.00
2017-08-13T03:52:56.107Z,0.00
2017-08-13T03:53:56.086Z,0.00
2017-08-13T03:54:56.069Z,0.00
2017-08-13T03:55:56.045Z,0.00
2017-08-13T03:56:56.028Z,0.00
2017-08-13T03:57:56.002Z,0.00
2017-08-13T03:58:55.983Z,0.00
2017-08-13T03:59:55.964Z,0.00
2017-08-13T04:00:55.940Z,0.00
2017-08-13T04:01:55.921Z,0.00
2017-08-13T04:02:55.901Z,0.00
2017-08-13T04:03:55.879Z,0.00
2017-08-13T04:04:55.857Z,0.00
2017-08-13T04:05:55.837Z,0.00
2017-08-13T04:06:55.817Z,0.00
2017-08-13T04:07:55.796Z,0.00
2017-08-13T04:08:55.774Z,0.00
2017-08-13T04:09:55.754Z,0.00
2017-08-13T04:10:55.733Z,0.00
2017-08-13T04:11:55.712Z,0.00
2017-08-13T04:12:55.691Z,4.00
2017-08-13T04:13:55.671Z,4.00
2017-08-13T04:14:55.650Z,4.00
2017-08-13T04:15:55.625Z,0.00
2017-08-13T04:16:55.605Z,0.00
2017-08-13T04:17:55.588Z,0.00
2017-08-13T04:18:55.567Z,0.00
2017-08-13T04:19:55.542Z,0.00
2017-08-13T04:20:55.521Z,0.00
2017-08-13T04:21:55.504Z,0.00
2017-08-13T04:22:55.482Z,4.00
2017-08-13T04:23:55.459Z,4.00
2017-08-13T04:24:55.437Z,4.00
2017-08-13T04:25:55.417Z,0.00
2017-08-13T04:26:55.398Z,0.00
2017-08-13T04:27:55.374Z,4.00
2017-08-13T04:28:55.355Z,0.00
2017-08-13T04:29:55.331Z,4.00
2017-08-13T04:30:55.314Z,0.00
2017-08-13T04:31:55.294Z,0.00
2017-08-13T04:32:55.270Z,0.00
2017-08-13T04:33:55.252Z,4.00
2017-08-13T04:34:55.228Z,0.00
2017-08-13T04:35:55.206Z,0.00
2017-08-13T04:36:55.190Z,4.00
2017-08-13T04:37:55.164Z,4.00
2017-08-13T04:38:55.153Z,0.00
2017-08-13T04:39:55.122Z,0.00
2017-08-13T04:40:55.111Z,0.00
2017-08-13T04:41:55.080Z,0.00
2017-08-13T04:42:55.064Z,0.00
2017-08-13T04:43:55.040Z,4.00
2017-08-13T04:44:55.023Z,4.00
2017-08-13T04:45:54.997Z,4.00
2017-08-13T04:46:54.979Z,8.00
2017-08-13T04:47:54.959Z,4.00
2017-08-13T04:48:54.951Z,8.00
2017-08-13T04:49:54.912Z,8.00
2017-08-13T04:50:54.891Z,4.00
2017-08-13T04:51:54.876Z,4.00
2017-08-13T04:52:54.853Z,4.00
2017-08-13T04:53:54.831Z,4.00
2017-08-13T04:54:54.811Z,4.00
2017-08-13T04:55:54.789Z,8.00
2017-08-13T04:56:54.772Z,4.00
2017-08-13T04:57:54.748Z,8.00
2017-08-13T04:58:54.724Z,4.00
2017-08-13T04:59:54.707Z,4.00
2017-08-13T05:00:54.682Z,4.00
2017-08-13T05:01:54.664Z,4.00
2017-08-13T05:02:54.649Z,4.00
2017-08-13T05:03:54.623Z,4.00
2017-08-13T05:04:54.601Z,4.00
2017-08-13T05:05:54.580Z,4.00
2017-08-13T05:06:54.561Z,4.00
2017-08-13T05:07:54.540Z,4.00
2017-08-13T05:08:54.517Z,4.00
2017-08-13T05:09:54.498Z,8.00
2017-08-13T05:10:54.473Z,8.00
2017-08-13T05:11:54.460Z,8.00
2017-08-13T05:12:54.436Z,4.00
2017-08-13T05:13:54.412Z,4.00
2017-08-13T05:14:54.389Z,4.00
2017-08-13T05:15:54.370Z,4.00
2017-08-13T05:16:54.350Z,4.00
2017-08-13T05:17:54.328Z,8.00
2017-08-13T05:18:54.306Z,4.00
2017-08-13T05:19:54.288Z,4.00
2017-08-13T05:20:54.268Z,4.00
2017-08-13T05:21:54.243Z,4.00
2017-08-13T05:22:54.224Z,4.00
2017-08-13T05:23:54.201Z,4.00
2017-08-13T05:24:54.182Z,8.00
2017-08-13T05:25:54.160Z,4.00
2017-08-13T05:26:54.137Z,8.00
2017-08-13T05:27:54.116Z,8.00
2017-08-13T05:28:54.101Z,8.00
2017-08-13T05:29:54.080Z,8.00
2017-08-13T05:30:54.057Z,8.00
2017-08-13T05:31:54.037Z,8.00
2017-08-13T05:32:54.019Z,8.00
2017-08-13T05:33:53.991Z,8.00
2017-08-13T05:34:53.974Z,8.00
2017-08-13T05:35:53.949Z,12.00
2017-08-13T05:36:53.933Z,16.00
2017-08-13T05:37:53.910Z,24.00
2017-08-13T05:38:53.890Z,28.00
2017-08-13T05:39:53.868Z,24.00
2017-08-13T05:40:53.845Z,24.00
2017-08-13T05:41:53.825Z,20.00
2017-08-13T05:42:53.806Z,16.00
2017-08-13T05:43:53.785Z,16.00
2017-08-13T05:44:53.764Z,8.00
2017-08-13T05:45:53.744Z,8.00
2017-08-13T05:46:53.721Z,8.00
2017-08-13T05:47:53.701Z,12.00
2017-08-13T05:48:53.677Z,12.00
2017-08-13T05:49:53.655Z,12.00
2017-08-13T05:50:53.637Z,8.00
2017-08-13T05:51:53.614Z,8.00
2017-08-13T05:52:53.597Z,8.00
2017-08-13T05:53:53.572Z,8.00
2017-08-13T05:54:53.551Z,8.00
2017-08-13T05:55:53.534Z,8.00
2017-08-13T05:56:53.515Z,8.00
2017-08-13T05:57:53.489Z,8.00
2017-08-13T05:58:53.470Z,8.00
2017-08-13T05:59:53.449Z,8.00
2017-08-13T06:00:53.430Z,8.00
2017-08-13T06:01:53.408Z,8.00
2017-08-13T06:02:53.391Z,8.00
2017-08-13T06:03:53.367Z,4.00
2017-08-13T06:04:53.345Z,4.00
2017-08-13T06:05:53.324Z,12.00
2017-08-13T06:06:53.301Z,8.00
2017-08-13T06:07:53.281Z,12.00
2017-08-13T06:08:53.263Z,12.00
2017-08-13T06:09:53.240Z,12.00
2017-08-13T06:10:53.217Z,8.00
2017-08-13T06:11:53.195Z,12.00
2017-08-13T06:12:53.175Z,12.00
2017-08-13T06:13:53.158Z,20.00
2017-08-13T06:14:53.133Z,16.00
2017-08-13T06:15:53.120Z,16.00
2017-08-13T06:16:53.092Z,16.00
2017-08-13T06:17:53.075Z,20.00
2017-08-13T06:18:53.050Z,20.00
2017-08-13T06:19:53.038Z,20.00
2017-08-13T06:20:53.011Z,20.00
2017-08-13T06:21:52.989Z,20.00
2017-08-13T06:22:52.966Z,24.00
2017-08-13T06:23:52.951Z,24.00
2017-08-13T06:24:52.928Z,24.00
2017-08-13T06:25:52.907Z,20.00
2017-08-13T06:26:52.882Z,20.00
2017-08-13T06:27:52.867Z,24.00
2017-08-13T06:28:52.843Z,24.00
2017-08-13T06:29:52.824Z,20.00
2017-08-13T06:30:52.810Z,16.00
2017-08-13T06:31:52.778Z,20.00
2017-08-13T06:32:52.760Z,20.00
2017-08-13T06:33:52.740Z,24.00
2017-08-13T06:34:52.715Z,24.00
2017-08-13T06:35:52.698Z,20.00
2017-08-13T06:36:52.675Z,24.00
2017-08-13T06:37:52.654Z,24.00
2017-08-13T06:38:52.634Z,24.00
2017-08-13T06:39:52.610Z,32.00
2017-08-13T06:40:52.590Z,32.00
2017-08-13T06:41:52.570Z,28.00
2017-08-13T06:42:52.549Z,32.00
2017-08-13T06:43:52.536Z,36.00
2017-08-13T06:44:52.506Z,32.00
2017-08-13T06:45:52.487Z,28.00
2017-08-13T06:46:52.465Z,32.00
2017-08-13T06:47:52.445Z,32.00
2017-08-13T06:48:52.426Z,32.00
2017-08-13T06:49:52.402Z,36.00
2017-08-13T06:50:52.383Z,36.00
2017-08-13T06:51:52.360Z,76.00
2017-08-13T06:52:52.339Z,28.00
2017-08-13T06:53:52.319Z,24.00
2017-08-13T06:54:52.301Z,24.00
2017-08-13T06:55:52.282Z,76.00
2017-08-13T06:56:52.262Z,16.00
2017-08-13T06:57:52.235Z,16.00
2017-08-13T06:58:52.214Z,16.00
2017-08-13T06:59:52.193Z,20.00
2017-08-13T07:00:52.176Z,20.00
2017-08-13T07:01:52.151Z,16.00
2017-08-13T07:02:52.133Z,20.00
2017-08-13T07:03:52.110Z,20.00
2017-08-13T07:04:52.089Z,40.00
2017-08-13T07:05:52.073Z,44.00
2017-08-13T07:06:52.050Z,20.00
2017-08-13T07:07:52.033Z,16.00
2017-08-13T07:08:52.006Z,16.00
2017-08-13T07:09:51.985Z,20.00
2017-08-13T07:10:51.968Z,20.00
2017-08-13T07:11:51.944Z,24.00
2017-08-13T07:12:51.925Z,28.00
2017-08-13T07:13:51.903Z,20.00
2017-08-13T07:14:51.882Z,20.00
2017-08-13T07:15:51.864Z,24.00
2017-08-13T07:16:51.842Z,24.00
2017-08-13T07:17:51.820Z,72.00
2017-08-13T07:18:51.800Z,48.00
2017-08-13T07:19:51.777Z,88.00
2017-08-13T07:20:51.756Z,80.00
2017-08-13T07:21:51.734Z,24.00
2017-08-13T07:22:51.713Z,24.00
2017-08-13T07:23:51.696Z,24.00
2017-08-13T07:24:51.675Z,20.00
2017-08-13T07:25:51.651Z,24.00
2017-08-13T07:26:51.634Z,48.00
2017-08-13T07:27:51.610Z,108.00
2017-08-13T07:28:51.593Z,36.00
2017-08-13T07:29:51.568Z,56.00
2017-08-13T07:30:51.557Z,44.00
2017-08-13T07:31:51.527Z,32.00
2017-08-13T07:32:51.507Z,32.00
2017-08-13T07:33:51.488Z,24.00
2017-08-13T07:34:51.464Z,24.00
2017-08-13T07:35:51.443Z,32.00
2017-08-13T07:36:51.427Z,192.00
2017-08-13T07:37:51.404Z,60.00
2017-08-13T07:38:51.383Z,28.00
2017-08-13T07:39:51.375Z,32.00
2017-08-13T07:40:51.343Z,52.00
2017-08-13T07:41:51.319Z,32.00
2017-08-13T07:42:51.303Z,24.00
2017-08-13T07:43:51.278Z,24.00
2017-08-13T07:44:51.262Z,24.00
2017-08-13T07:45:51.236Z,32.00
2017-08-13T07:46:51.220Z,72.00
2017-08-13T07:47:51.203Z,24.00
2017-08-13T07:48:51.176Z,16.00
2017-08-13T07:49:51.157Z,20.00
2017-08-13T07:50:51.139Z,20.00
2017-08-13T07:51:51.116Z,20.00
2017-08-13T07:52:51.095Z,28.00
2017-08-13T07:53:51.073Z,20.00
2017-08-13T07:54:51.053Z,16.00
2017-08-13T07:55:51.033Z,12.00
2017-08-13T07:56:51.014Z,24.00
2017-08-13T07:57:50.989Z,164.00
2017-08-13T07:58:50.970Z,52.00
2017-08-13T07:59:50.946Z,44.00
2017-08-13T08:00:50.931Z,72.00
2017-08-13T08:01:50.904Z,36.00
2017-08-13T08:02:50.883Z,152.00
2017-08-13T08:03:50.864Z,164.00
2017-08-13T08:04:50.843Z,164.00
2017-08-13T08:05:50.827Z,124.00
2017-08-13T08:06:50.805Z,140.00
2017-08-13T08:07:50.782Z,164.00
2017-08-13T08:08:50.760Z,92.00
2017-08-13T08:09:50.742Z,88.00
2017-08-13T08:10:50.721Z,156.00
2017-08-13T08:11:50.700Z,32.00
2017-08-13T08:12:50.685Z,32.00
2017-08-13T08:13:50.658Z,28.00
2017-08-13T08:14:50.639Z,36.00
2017-08-13T08:15:50.619Z,24.00
2017-08-13T08:16:50.595Z,24.00
2017-08-13T08:17:50.577Z,36.00
2017-08-13T08:18:50.553Z,24.00
2017-08-13T08:19:50.535Z,132.00
2017-08-13T08:20:50.521Z,148.00
2017-08-13T08:21:50.491Z,96.00
2017-08-13T08:22:50.473Z,28.00
2017-08-13T08:23:50.450Z,20.00
2017-08-13T08:24:50.433Z,136.00
2017-08-13T08:25:50.413Z,32.00
2017-08-13T08:26:50.391Z,72.00
2017-08-13T08:27:50.370Z,16.00
2017-08-13T08:28:50.397Z,96.00
2017-08-13T08:29:50.328Z,96.00
2017-08-13T08:30:50.307Z,104.00
2017-08-13T08:31:50.288Z,104.00
2017-08-13T08:32:50.266Z,104.00
2017-08-13T08:33:50.242Z,96.00
2017-08-13T08:34:50.223Z,16.00
2017-08-13T08:35:50.211Z,16.00
2017-08-13T08:36:50.186Z,48.00
2017-08-13T08:37:50.163Z,16.00
2017-08-13T08:38:50.142Z,16.00
2017-08-13T08:39:50.119Z,88.00
2017-08-13T08:40:50.103Z,88.00
2017-08-13T08:41:50.094Z,84.00
2017-08-13T08:42:50.059Z,80.00
2017-08-13T08:43:50.037Z,76.00
2017-08-13T08:44:50.023Z,80.00
2017-08-13T08:45:50.006Z,76.00
2017-08-13T08:46:49.979Z,76.00
2017-08-13T08:47:49.956Z,76.00
2017-08-13T08:48:49.933Z,72.00
2017-08-13T08:49:49.916Z,72.00
2017-08-13T08:50:49.896Z,76.00
2017-08-13T08:51:49.877Z,72.00
2017-08-13T08:52:49.852Z,72.00
2017-08-13T08:53:49.831Z,72.00
2017-08-13T08:54:49.811Z,68.00
2017-08-13T08:55:49.793Z,72.00
2017-08-13T08:56:49.776Z,68.00
2017-08-13T08:57:49.751Z,68.00
2017-08-13T08:58:49.733Z,68.00
2017-08-13T08:59:49.727Z,64.00
2017-08-13T09:00:49.716Z,64.00
2017-08-13T09:01:49.676Z,16.00
2017-08-13T09:02:49.655Z,12.00
2017-08-13T09:03:49.643Z,12.00
2017-08-13T09:04:49.622Z,12.00
2017-08-13T09:05:49.607Z,12.00
2017-08-13T09:06:49.576Z,8.00
2017-08-13T09:07:49.557Z,4.00
2017-08-13T09:08:49.531Z,4.00
2017-08-13T09:09:49.515Z,48.00
2017-08-13T09:10:49.502Z,52.00
2017-08-13T09:11:49.474Z,52.00
2017-08-13T09:12:49.453Z,48.00
2017-08-13T09:13:49.435Z,48.00
2017-08-13T09:14:49.408Z,48.00
2017-08-13T09:15:49.380Z,48.00
2017-08-13T09:16:49.379Z,44.00
2017-08-13T09:17:49.346Z,44.00
2017-08-13T09:18:49.322Z,44.00
2017-08-13T09:19:49.300Z,40.00
2017-08-13T09:20:49.296Z,44.00
2017-08-13T09:21:49.267Z,40.00
2017-08-13T09:22:49.247Z,44.00
2017-08-13T09:23:49.219Z,40.00
2017-08-13T09:24:49.196Z,44.00
2017-08-13T09:25:49.184Z,40.00
2017-08-13T09:26:49.154Z,40.00
2017-08-13T09:27:49.156Z,28.00
2017-08-13T09:28:49.139Z,12.00
2017-08-13T09:29:49.108Z,20.00
2017-08-13T09:30:49.104Z,40.00
2017-08-13T09:31:49.073Z,40.00
2017-08-13T09:32:49.045Z,40.00
2017-08-13T09:33:49.032Z,36.00
2017-08-13T09:34:49.013Z,44.00
2017-08-13T09:35:48.981Z,36.00
2017-08-13T09:36:48.971Z,44.00
2017-08-13T09:37:48.942Z,40.00
2017-08-13T09:38:48.923Z,40.00
2017-08-13T09:39:48.907Z,44.00
2017-08-13T09:40:48.887Z,40.00
2017-08-13T09:41:48.869Z,40.00
2017-08-13T09:42:48.829Z,40.00
2017-08-13T09:43:48.809Z,36.00
2017-08-13T09:44:48.804Z,36.00
2017-08-13T09:45:48.767Z,32.00
2017-08-13T09:46:48.745Z,32.00
2017-08-13T09:47:48.730Z,36.00
2017-08-13T09:48:48.709Z,36.00
2017-08-13T09:49:48.683Z,32.00
2017-08-13T09:50:48.668Z,36.00
2017-08-13T09:51:48.647Z,40.00
2017-08-13T09:52:48.625Z,28.00
2017-08-13T09:53:48.606Z,36.00
2017-08-13T09:54:48.590Z,36.00
2017-08-13T09:55:48.560Z,40.00
2017-08-13T09:56:48.540Z,40.00
2017-08-13T09:57:48.522Z,40.00
2017-08-13T09:58:48.505Z,40.00
2017-08-13T09:59:48.480Z,40.00
2017-08-13T10:00:48.458Z,16.00
2017-08-13T10:01:48.436Z,20.00
2017-08-13T10:02:48.420Z,44.00
2017-08-13T10:03:48.400Z,44.00
2017-08-13T10:04:48.376Z,40.00
2017-08-13T10:05:48.358Z,28.00
2017-08-13T10:06:48.337Z,24.00
2017-08-13T10:07:48.318Z,28.00
2017-08-13T10:08:48.296Z,32.00
2017-08-13T10:09:48.275Z,28.00
2017-08-13T10:10:48.257Z,28.00
2017-08-13T10:11:48.233Z,28.00
2017-08-13T10:12:48.213Z,24.00
2017-08-13T10:13:48.195Z,36.00
2017-08-13T10:14:48.173Z,36.00
2017-08-13T10:15:48.154Z,32.00
2017-08-13T10:16:48.134Z,36.00
2017-08-13T10:17:48.108Z,44.00
2017-08-13T10:18:48.089Z,40.00
2017-08-13T10:19:48.069Z,40.00
2017-08-13T10:20:48.053Z,40.00
2017-08-13T10:21:48.029Z,36.00
2017-08-13T10:22:48.009Z,40.00
2017-08-13T10:23:47.987Z,24.00
2017-08-13T10:24:47.969Z,32.00
2017-08-13T10:25:47.944Z,40.00
2017-08-13T10:26:47.926Z,40.00
2017-08-13T10:27:47.908Z,32.00
2017-08-13T10:28:47.884Z,28.00
2017-08-13T10:29:47.866Z,28.00
2017-08-13T10:30:47.845Z,20.00
2017-08-13T10:31:47.822Z,20.00
2017-08-13T10:32:47.809Z,20.00
2017-08-13T10:33:47.822Z,20.00
2017-08-13T10:34:47.764Z,20.00
2017-08-13T10:35:47.745Z,20.00
2017-08-13T10:36:47.725Z,20.00
2017-08-13T10:37:47.701Z,20.00
2017-08-13T10:38:47.682Z,32.00
2017-08-13T10:39:47.661Z,36.00
2017-08-13T10:40:47.641Z,40.00
2017-08-13T10:41:47.621Z,28.00
2017-08-13T10:42:47.599Z,40.00
2017-08-13T10:43:47.581Z,40.00
2017-08-13T10:44:47.556Z,40.00
2017-08-13T10:45:47.535Z,24.00
2017-08-13T10:46:47.517Z,32.00
2017-08-13T10:47:47.495Z,36.00
2017-08-13T10:48:47.474Z,24.00
2017-08-13T10:49:47.457Z,24.00
2017-08-13T10:50:47.433Z,20.00
2017-08-13T10:51:47.416Z,16.00
2017-08-13T10:52:47.397Z,20.00
2017-08-13T10:53:47.374Z,16.00
2017-08-13T10:54:47.355Z,16.00
2017-08-13T10:55:47.331Z,16.00
2017-08-13T10:56:47.329Z,16.00
2017-08-13T10:57:47.294Z,16.00
2017-08-13T10:58:47.269Z,16.00
2017-08-13T10:59:47.253Z,16.00
2017-08-13T11:00:47.238Z,16.00
2017-08-13T11:01:47.209Z,16.00
2017-08-13T11:02:47.187Z,16.00
2017-08-13T11:03:47.166Z,20.00
2017-08-13T11:04:47.147Z,16.00
2017-08-13T11:05:47.125Z,20.00
2017-08-13T11:06:47.108Z,20.00
2017-08-13T11:07:47.094Z,16.00
2017-08-13T11:08:47.072Z,16.00
2017-08-13T11:09:47.044Z,20.00
2017-08-13T11:10:47.025Z,24.00
2017-08-13T11:11:47.003Z,28.00
2017-08-13T11:12:46.993Z,16.00
2017-08-13T11:13:46.961Z,24.00
2017-08-13T11:14:46.949Z,24.00
2017-08-13T11:15:46.921Z,12.00
2017-08-13T11:16:46.901Z,16.00
2017-08-13T11:17:46.879Z,12.00
2017-08-13T11:18:46.858Z,16.00
2017-08-13T11:19:46.839Z,16.00
2017-08-13T11:20:46.831Z,16.00
2017-08-13T11:21:46.802Z,16.00
2017-08-13T11:22:46.782Z,12.00
2017-08-13T11:23:46.758Z,12.00
2017-08-13T11:24:46.739Z,12.00
2017-08-13T11:25:46.719Z,12.00
2017-08-13T11:26:46.698Z,16.00
2017-08-13T11:27:46.678Z,16.00
2017-08-13T11:28:46.659Z,16.00
2017-08-13T11:29:46.636Z,16.00
2017-08-13T11:30:46.618Z,16.00
2017-08-13T11:31:46.599Z,16.00
2017-08-13T11:32:46.574Z,16.00
2017-08-13T11:33:46.557Z,24.00
2017-08-13T11:34:46.535Z,20.00
2017-08-13T11:35:46.518Z,24.00
2017-08-13T11:36:46.497Z,20.00
2017-08-13T11:37:46.471Z,20.00
2017-08-13T11:38:46.450Z,20.00
2017-08-13T11:39:46.432Z,16.00
2017-08-13T11:40:46.415Z,20.00
2017-08-13T11:41:46.391Z,16.00
2017-08-13T11:42:46.374Z,16.00
2017-08-13T11:43:46.353Z,12.00
2017-08-13T11:44:46.332Z,12.00
2017-08-13T11:45:46.313Z,12.00
2017-08-13T11:46:46.288Z,12.00
2017-08-13T11:47:46.271Z,16.00
2017-08-13T11:48:46.251Z,12.00
2017-08-13T11:49:46.225Z,20.00
2017-08-13T11:50:46.210Z,20.00
2017-08-13T11:51:46.185Z,20.00
2017-08-13T11:52:46.166Z,12.00
2017-08-13T11:53:46.150Z,16.00
2017-08-13T11:54:46.127Z,12.00
2017-08-13T11:55:46.105Z,16.00
2017-08-13T11:56:46.085Z,16.00
2017-08-13T11:57:46.069Z,12.00
2017-08-13T11:58:46.045Z,12.00
2017-08-13T11:59:46.025Z,16.00
2017-08-13T12:00:46.011Z,20.00
2017-08-13T12:01:45.986Z,20.00
2017-08-13T12:02:45.967Z,20.00
2017-08-13T12:03:45.946Z,20.00
2017-08-13T12:04:45.922Z,20.00
2017-08-13T12:05:45.906Z,20.00
2017-08-13T12:06:45.883Z,16.00
2017-08-13T12:07:45.865Z,16.00
2017-08-13T12:08:45.843Z,16.00
2017-08-13T12:09:45.819Z,16.00
2017-08-13T12:10:45.799Z,20.00
2017-08-13T12:11:45.780Z,24.00
2017-08-13T12:12:45.763Z,28.00
2017-08-13T12:13:45.738Z,28.00
2017-08-13T12:14:45.720Z,28.00
2017-08-13T12:15:45.698Z,28.00
2017-08-13T12:16:45.678Z,28.00
2017-08-13T12:17:45.676Z,28.00
2017-08-13T12:18:45.638Z,32.00
2017-08-13T12:19:45.619Z,32.00
2017-08-13T12:20:45.606Z,40.00
2017-08-13T12:21:45.578Z,40.00
2017-08-13T12:22:45.559Z,40.00
2017-08-13T12:23:45.532Z,40.00
2017-08-13T12:24:45.512Z,36.00
2017-08-13T12:25:45.497Z,32.00
2017-08-13T12:26:45.473Z,48.00
2017-08-13T12:27:45.454Z,52.00
2017-08-13T12:28:45.433Z,40.00
2017-08-13T12:29:45.411Z,48.00
2017-08-13T12:30:45.402Z,48.00
2017-08-13T12:31:45.368Z,48.00
2017-08-13T12:32:45.346Z,32.00
2017-08-13T12:33:45.325Z,32.00
2017-08-13T12:34:45.307Z,28.00
2017-08-13T12:35:45.288Z,28.00
2017-08-13T12:36:45.263Z,24.00
2017-08-13T12:37:45.242Z,24.00
2017-08-13T12:38:45.225Z,28.00
2017-08-13T12:39:45.202Z,40.00
2017-08-13T12:40:45.183Z,44.00
2017-08-13T12:41:45.158Z,48.00
2017-08-13T12:42:45.140Z,48.00
2017-08-13T12:43:45.118Z,44.00
2017-08-13T12:44:45.097Z,48.00
2017-08-13T12:45:45.076Z,44.00
2017-08-13T12:46:45.055Z,48.00
2017-08-13T12:47:45.034Z,48.00
2017-08-13T12:48:45.014Z,48.00
2017-08-13T12:49:44.994Z,24.00
2017-08-13T12:50:44.974Z,28.00
2017-08-13T12:51:44.951Z,24.00
2017-08-13T12:52:44.932Z,24.00
2017-08-13T12:53:44.913Z,28.00
2017-08-13T12:54:44.893Z,24.00
2017-08-13T12:55:44.873Z,24.00
2017-08-13T12:56:44.847Z,28.00
2017-08-13T12:57:44.829Z,28.00
2017-08-13T12:58:44.808Z,28.00
2017-08-13T12:59:44.785Z,28.00
2017-08-13T13:00:44.772Z,28.00
2017-08-13T13:01:44.748Z,28.00
2017-08-13T13:02:44.723Z,32.00